This is the latest recevied weather packets stored in our database for station/object WC4PEM-6. If no packets are shown the sender has not sent any weather packets the latest 10 day(s).
| Time | Temp. | Humidity | Pressure | Rain* | Wind** | Luminosity | Snow |
|---|---|---|---|---|---|---|---|
| 1777919933 | 27.22° C | 50% | 1015.2 hPa | 0 mm | - | - | - |
| 1777919708 | 27.22° C | 50% | 1015.2 hPa | 0 mm | - | - | - |
| 1777919408 | 27.22° C | 50% | 1015.3 hPa | 0 mm | - | - | - |
| 1777919246 | 27.22° C | 51% | 1015.3 hPa | 0 mm | - | - | - |
| 1777919108 | 27.22° C | 51% | 1015.3 hPa | 0 mm | - | - | - |
| 1777918808 | 27.22° C | 53% | 1015.4 hPa | 0 mm | - | - | - |
| 1777918508 | 26.67° C | 52% | 1015.4 hPa | 0 mm | - | - | - |
| 1777918481 | 26.67° C | 51% | 1015.4 hPa | 0 mm | - | - | - |
| 1777918208 | 26.67° C | 51% | 1015.4 hPa | 0 mm | - | - | - |
| 1777917908 | 26.67° C | 52% | 1015.3 hPa | 0 mm | - | - | - |
| 1777917608 | 26.67° C | 50% | 1015.4 hPa | 0 mm | - | - | - |
| 1777917308 | 26.67° C | 49% | 1015.5 hPa | 0 mm | - | - | - |
| 1777917008 | 27.22° C | 49% | 1015.6 hPa | 0 mm | - | - | - |
| 1777916709 | 27.22° C | 47% | 1015.5 hPa | 0 mm | - | - | - |
| 1777916708 | 27.22° C | 48% | 1015.6 hPa | 0 mm | - | - | - |
| 1777916621 | 18.33° C | 94% | 1014 hPa | 0 mm | - | - | - |
| 1777916408 | 27.22° C | 47% | 1015.5 hPa | 0 mm | - | - | - |
| 1777916108 | 27.22° C | 47% | 1015.6 hPa | 0 mm | - | - | - |
| 1777915808 | 27.22° C | 46% | 1015.6 hPa | 0 mm | - | - | - |
| 1777915695 | 27.22° C | 46% | 1015.6 hPa | 0 mm | - | - | - |
| 1777915508 | 27.22° C | 46% | 1015.6 hPa | 0 mm | - | - | - |
| 1777915208 | 27.78° C | 45% | 1015.8 hPa | 0 mm | - | - | - |
| 1777914908 | 27.78° C | 46% | 1015.8 hPa | 0 mm | - | - | - |
| 1777914608 | 27.22° C | 48% | 1015.8 hPa | 0 mm | - | - | - |
| 1777914308 | 26.67° C | 48% | 1016 hPa | 0 mm | - | - | - |
* Rain latest hour (hover to see other rain measurements)
** Current wind speed in m/s (hover to see current wind gust speed)